sensor_id;sensor_type;location;lat;lon;timestamp;P1;durP1;ratioP1;P2;durP2;ratioP2
291;SDS011;23311;48.776;9.162;2023-05-14T00:01:52;10.47;;;9.93;;
291;SDS011;23311;48.776;9.162;2023-05-14T00:04:21;10.70;;;10.10;;
291;SDS011;23311;48.776;9.162;2023-05-14T00:06:49;10.37;;;9.83;;
291;SDS011;23311;48.776;9.162;2023-05-14T00:09:20;10.03;;;9.53;;
291;SDS011;23311;48.776;9.162;2023-05-14T00:11:48;9.53;;;9.03;;
291;SDS011;23311;48.776;9.162;2023-05-14T00:14:16;9.87;;;9.37;;
291;SDS011;23311;48.776;9.162;2023-05-14T00:16:46;10.00;;;9.50;;
291;SDS011;23311;48.776;9.162;2023-05-14T00:19:14;10.47;;;9.93;;
291;SDS011;23311;48.776;9.162;2023-05-14T00:21:42;10.10;;;9.60;;
291;SDS011;23311;48.776;9.162;2023-05-14T00:24:10;10.10;;;9.60;;
291;SDS011;23311;48.776;9.162;2023-05-14T00:26:38;11.40;;;9.73;;
291;SDS011;23311;48.776;9.162;2023-05-14T00:29:06;10.10;;;9.60;;
291;SDS011;23311;48.776;9.162;2023-05-14T00:31:35;10.03;;;9.53;;
291;SDS011;23311;48.776;9.162;2023-05-14T00:34:04;9.70;;;9.20;;
291;SDS011;23311;48.776;9.162;2023-05-14T00:36:32;10.37;;;9.87;;
291;SDS011;23311;48.776;9.162;2023-05-14T00:39:00;9.50;;;9.00;;
291;SDS011;23311;48.776;9.162;2023-05-14T00:41:29;9.60;;;9.10;;
291;SDS011;23311;48.776;9.162;2023-05-14T00:43:57;9.67;;;9.17;;
291;SDS011;23311;48.776;9.162;2023-05-14T00:46:25;10.13;;;9.67;;
291;SDS011;23311;48.776;9.162;2023-05-14T00:48:53;10.03;;;9.50;;
291;SDS011;23311;48.776;9.162;2023-05-14T00:51:23;10.07;;;9.57;;
291;SDS011;23311;48.776;9.162;2023-05-14T00:53:51;10.87;;;10.27;;
291;SDS011;23311;48.776;9.162;2023-05-14T00:56:20;10.10;;;9.53;;
291;SDS011;23311;48.776;9.162;2023-05-14T00:58:48;10.13;;;9.63;;
291;SDS011;23311;48.776;9.162;2023-05-14T01:01:16;11.37;;;10.77;;
291;SDS011;23311;48.776;9.162;2023-05-14T01:03:44;10.50;;;9.97;;
291;SDS011;23311;48.776;9.162;2023-05-14T01:06:14;12.20;;;11.60;;
291;SDS011;23311;48.776;9.162;2023-05-14T01:08:52;11.43;;;10.83;;
291;SDS011;23311;48.776;9.162;2023-05-14T01:11:28;12.30;;;11.70;;
291;SDS011;23311;48.776;9.162;2023-05-14T01:14:02;12.80;;;12.10;;
291;SDS011;23311;48.776;9.162;2023-05-14T01:16:37;12.67;;;12.00;;
291;SDS011;23311;48.776;9.162;2023-05-14T01:19:09;13.77;;;12.17;;
291;SDS011;23311;48.776;9.162;2023-05-14T01:21:48;11.73;;;11.13;;
291;SDS011;23311;48.776;9.162;2023-05-14T01:24:16;13.03;;;12.30;;
291;SDS011;23311;48.776;9.162;2023-05-14T01:26:45;11.57;;;10.97;;
291;SDS011;23311;48.776;9.162;2023-05-14T01:29:14;12.87;;;12.17;;
291;SDS011;23311;48.776;9.162;2023-05-14T01:31:46;12.40;;;11.80;;
291;SDS011;23311;48.776;9.162;2023-05-14T01:34:18;12.90;;;12.20;;
291;SDS011;23311;48.776;9.162;2023-05-14T01:36:50;13.50;;;12.80;;
291;SDS011;23311;48.776;9.162;2023-05-14T01:39:19;13.17;;;12.47;;
291;SDS011;23311;48.776;9.162;2023-05-14T01:41:49;12.77;;;11.87;;
291;SDS011;23311;48.776;9.162;2023-05-14T01:44:18;13.10;;;12.40;;
291;SDS011;23311;48.776;9.162;2023-05-14T01:46:47;13.03;;;12.33;;
291;SDS011;23311;48.776;9.162;2023-05-14T01:49:16;13.83;;;13.13;;
291;SDS011;23311;48.776;9.162;2023-05-14T01:51:45;13.80;;;13.10;;
291;SDS011;23311;48.776;9.162;2023-05-14T01:54:14;14.00;;;13.30;;
291;SDS011;23311;48.776;9.162;2023-05-14T01:56:42;12.73;;;12.03;;
291;SDS011;23311;48.776;9.162;2023-05-14T01:59:10;13.30;;;12.60;;
291;SDS011;23311;48.776;9.162;2023-05-14T02:01:38;15.10;;;14.00;;
291;SDS011;23311;48.776;9.162;2023-05-14T02:04:06;13.80;;;13.10;;
291;SDS011;23311;48.776;9.162;2023-05-14T02:06:34;14.30;;;13.60;;
291;SDS011;23311;48.776;9.162;2023-05-14T02:09:03;14.33;;;12.27;;
291;SDS011;23311;48.776;9.162;2023-05-14T02:11:33;15.63;;;14.83;;
291;SDS011;23311;48.776;9.162;2023-05-14T02:14:01;14.30;;;13.47;;
291;SDS011;23311;48.776;9.162;2023-05-14T02:16:29;16.80;;;14.50;;
291;SDS011;23311;48.776;9.162;2023-05-14T02:18:57;15.30;;;13.40;;
291;SDS011;23311;48.776;9.162;2023-05-14T02:21:25;16.80;;;14.20;;
291;SDS011;23311;48.776;9.162;2023-05-14T02:23:53;14.87;;;14.07;;
291;SDS011;23311;48.776;9.162;2023-05-14T02:26:22;14.83;;;13.87;;
291;SDS011;23311;48.776;9.162;2023-05-14T02:28:52;15.00;;;14.23;;
291;SDS011;23311;48.776;9.162;2023-05-14T02:31:20;14.33;;;13.10;;
291;SDS011;23311;48.776;9.162;2023-05-14T02:33:49;14.30;;;13.60;;
291;SDS011;23311;48.776;9.162;2023-05-14T02:36:17;13.47;;;12.80;;
291;SDS011;23311;48.776;9.162;2023-05-14T02:38:45;15.77;;;14.97;;
291;SDS011;23311;48.776;9.162;2023-05-14T02:41:13;14.67;;;13.93;;
291;SDS011;23311;48.776;9.162;2023-05-14T02:43:41;13.80;;;12.97;;
291;SDS011;23311;48.776;9.162;2023-05-14T02:46:10;15.40;;;14.60;;
291;SDS011;23311;48.776;9.162;2023-05-14T02:48:38;13.57;;;12.47;;
291;SDS011;23311;48.776;9.162;2023-05-14T02:51:06;11.60;;;11.03;;
291;SDS011;23311;48.776;9.162;2023-05-14T02:53:34;12.50;;;11.23;;
291;SDS011;23311;48.776;9.162;2023-05-14T02:56:02;13.83;;;13.13;;
291;SDS011;23311;48.776;9.162;2023-05-14T02:58:31;13.10;;;12.40;;
291;SDS011;23311;48.776;9.162;2023-05-14T03:00:59;15.50;;;13.03;;
291;SDS011;23311;48.776;9.162;2023-05-14T03:03:29;12.63;;;11.97;;
291;SDS011;23311;48.776;9.162;2023-05-14T03:05:58;13.03;;;12.33;;
291;SDS011;23311;48.776;9.162;2023-05-14T03:08:26;13.27;;;12.50;;
291;SDS011;23311;48.776;9.162;2023-05-14T03:10:54;13.40;;;12.00;;
291;SDS011;23311;48.776;9.162;2023-05-14T03:13:22;12.50;;;11.70;;
291;SDS011;23311;48.776;9.162;2023-05-14T03:15:50;13.10;;;11.33;;
291;SDS011;23311;48.776;9.162;2023-05-14T03:18:20;11.83;;;11.23;;
291;SDS011;23311;48.776;9.162;2023-05-14T03:20:50;12.33;;;11.73;;
291;SDS011;23311;48.776;9.162;2023-05-14T03:23:18;15.13;;;13.10;;
291;SDS011;23311;48.776;9.162;2023-05-14T03:25:46;13.47;;;12.77;;
291;SDS011;23311;48.776;9.162;2023-05-14T03:28:14;13.63;;;12.77;;
291;SDS011;23311;48.776;9.162;2023-05-14T03:30:42;12.13;;;11.53;;
291;SDS011;23311;48.776;9.162;2023-05-14T03:33:11;13.23;;;12.10;;
291;SDS011;23311;48.776;9.162;2023-05-14T03:35:39;12.57;;;11.93;;
291;SDS011;23311;48.776;9.162;2023-05-14T03:38:08;13.67;;;12.97;;
291;SDS011;23311;48.776;9.162;2023-05-14T03:40:36;13.60;;;12.90;;
291;SDS011;23311;48.776;9.162;2023-05-14T03:43:04;12.60;;;11.77;;
291;SDS011;23311;48.776;9.162;2023-05-14T03:45:32;12.97;;;12.27;;
291;SDS011;23311;48.776;9.162;2023-05-14T03:48:01;14.07;;;12.73;;
291;SDS011;23311;48.776;9.162;2023-05-14T03:50:32;12.70;;;12.00;;
291;SDS011;23311;48.776;9.162;2023-05-14T03:53:00;12.93;;;12.23;;
291;SDS011;23311;48.776;9.162;2023-05-14T03:55:30;11.27;;;10.67;;
291;SDS011;23311;48.776;9.162;2023-05-14T03:57:58;11.90;;;11.30;;
291;SDS011;23311;48.776;9.162;2023-05-14T04:00:27;12.33;;;11.73;;
291;SDS011;23311;48.776;9.162;2023-05-14T04:02:55;14.53;;;13.00;;
291;SDS011;23311;48.776;9.162;2023-05-14T04:05:23;12.30;;;11.70;;
291;SDS011;23311;48.776;9.162;2023-05-14T04:07:51;13.70;;;12.00;;
291;SDS011;23311;48.776;9.162;2023-05-14T04:10:19;9.90;;;9.40;;
291;SDS011;23311;48.776;9.162;2023-05-14T04:12:49;13.33;;;11.47;;
291;SDS011;23311;48.776;9.162;2023-05-14T04:15:17;11.20;;;10.60;;
291;SDS011;23311;48.776;9.162;2023-05-14T04:17:45;11.00;;;10.40;;
291;SDS011;23311;48.776;9.162;2023-05-14T04:20:13;10.73;;;10.13;;
291;SDS011;23311;48.776;9.162;2023-05-14T04:22:41;11.03;;;10.43;;
291;SDS011;23311;48.776;9.162;2023-05-14T04:25:09;11.20;;;10.17;;
291;SDS011;23311;48.776;9.162;2023-05-14T04:27:37;10.80;;;10.10;;
291;SDS011;23311;48.776;9.162;2023-05-14T04:30:08;10.40;;;9.20;;
291;SDS011;23311;48.776;9.162;2023-05-14T04:32:36;10.57;;;10.00;;
291;SDS011;23311;48.776;9.162;2023-05-14T04:35:05;9.50;;;9.00;;
291;SDS011;23311;48.776;9.162;2023-05-14T04:37:35;11.73;;;11.13;;
291;SDS011;23311;48.776;9.162;2023-05-14T04:40:03;10.73;;;10.13;;
291;SDS011;23311;48.776;9.162;2023-05-14T04:42:33;11.43;;;10.53;;
291;SDS011;23311;48.776;9.162;2023-05-14T04:45:01;11.87;;;9.70;;
291;SDS011;23311;48.776;9.162;2023-05-14T04:47:31;9.63;;;9.13;;
291;SDS011;23311;48.776;9.162;2023-05-14T04:50:00;10.97;;;10.37;;
291;SDS011;23311;48.776;9.162;2023-05-14T04:52:28;11.83;;;10.43;;
291;SDS011;23311;48.776;9.162;2023-05-14T04:54:56;10.43;;;9.57;;
291;SDS011;23311;48.776;9.162;2023-05-14T04:57:24;11.00;;;9.63;;
291;SDS011;23311;48.776;9.162;2023-05-14T04:59:52;10.37;;;9.60;;
291;SDS011;23311;48.776;9.162;2023-05-14T05:02:20;12.60;;;10.40;;
291;SDS011;23311;48.776;9.162;2023-05-14T05:04:50;12.73;;;10.70;;
291;SDS011;23311;48.776;9.162;2023-05-14T05:07:18;9.70;;;9.23;;
291;SDS011;23311;48.776;9.162;2023-05-14T05:09:46;10.50;;;10.00;;
291;SDS011;23311;48.776;9.162;2023-05-14T05:12:14;12.33;;;10.17;;
291;SDS011;23311;48.776;9.162;2023-05-14T05:14:42;10.17;;;9.20;;
291;SDS011;23311;48.776;9.162;2023-05-14T05:17:10;12.23;;;9.77;;
291;SDS011;23311;48.776;9.162;2023-05-14T05:19:38;10.70;;;9.80;;
291;SDS011;23311;48.776;9.162;2023-05-14T05:22:11;9.60;;;9.10;;
291;SDS011;23311;48.776;9.162;2023-05-14T05:24:39;11.60;;;10.10;;
291;SDS011;23311;48.776;9.162;2023-05-14T05:27:07;12.03;;;11.40;;
291;SDS011;23311;48.776;9.162;2023-05-14T05:29:35;10.70;;;10.10;;
291;SDS011;23311;48.776;9.162;2023-05-14T05:32:03;10.07;;;8.97;;
291;SDS011;23311;48.776;9.162;2023-05-14T05:34:32;9.80;;;9.30;;
291;SDS011;23311;48.776;9.162;2023-05-14T05:37:01;10.20;;;9.47;;
291;SDS011;23311;48.776;9.162;2023-05-14T05:39:30;11.40;;;9.63;;
291;SDS011;23311;48.776;9.162;2023-05-14T05:42:00;20.63;;;18.40;;
291;SDS011;23311;48.776;9.162;2023-05-14T05:44:28;13.77;;;12.10;;
291;SDS011;23311;48.776;9.162;2023-05-14T05:46:57;10.80;;;10.20;;
291;SDS011;23311;48.776;9.162;2023-05-14T05:49:25;11.47;;;10.67;;
291;SDS011;23311;48.776;9.162;2023-05-14T05:51:53;10.70;;;10.10;;
291;SDS011;23311;48.776;9.162;2023-05-14T05:54:22;9.73;;;9.23;;
291;SDS011;23311;48.776;9.162;2023-05-14T05:56:52;9.90;;;9.27;;
291;SDS011;23311;48.776;9.162;2023-05-14T05:59:20;9.60;;;9.10;;
291;SDS011;23311;48.776;9.162;2023-05-14T06:01:48;8.83;;;8.33;;
291;SDS011;23311;48.776;9.162;2023-05-14T06:04:16;10.17;;;9.67;;
291;SDS011;23311;48.776;9.162;2023-05-14T06:06:45;10.53;;;9.80;;
291;SDS011;23311;48.776;9.162;2023-05-14T06:09:13;9.10;;;8.60;;
291;SDS011;23311;48.776;9.162;2023-05-14T06:11:41;9.70;;;9.20;;
291;SDS011;23311;48.776;9.162;2023-05-14T06:14:11;9.87;;;9.33;;
291;SDS011;23311;48.776;9.162;2023-05-14T06:16:39;9.20;;;8.70;;
291;SDS011;23311;48.776;9.162;2023-05-14T06:19:07;10.90;;;9.17;;
291;SDS011;23311;48.776;9.162;2023-05-14T06:21:35;9.77;;;9.27;;
291;SDS011;23311;48.776;9.162;2023-05-14T06:24:03;8.83;;;8.37;;
291;SDS011;23311;48.776;9.162;2023-05-14T06:26:32;10.87;;;8.87;;
291;SDS011;23311;48.776;9.162;2023-05-14T06:29:00;9.60;;;9.10;;
291;SDS011;23311;48.776;9.162;2023-05-14T06:31:29;9.10;;;8.60;;
291;SDS011;23311;48.776;9.162;2023-05-14T06:33:57;8.23;;;7.83;;
291;SDS011;23311;48.776;9.162;2023-05-14T06:36:25;8.93;;;8.43;;
291;SDS011;23311;48.776;9.162;2023-05-14T06:38:53;8.80;;;8.30;;
291;SDS011;23311;48.776;9.162;2023-05-14T06:41:21;8.60;;;8.17;;
291;SDS011;23311;48.776;9.162;2023-05-14T06:43:49;9.13;;;8.17;;
291;SDS011;23311;48.776;9.162;2023-05-14T06:46:17;8.10;;;7.67;;
291;SDS011;23311;48.776;9.162;2023-05-14T06:48:47;10.63;;;10.03;;
291;SDS011;23311;48.776;9.162;2023-05-14T06:51:15;8.57;;;8.07;;
291;SDS011;23311;48.776;9.162;2023-05-14T06:53:43;9.17;;;8.67;;
291;SDS011;23311;48.776;9.162;2023-05-14T06:56:12;10.73;;;10.13;;
291;SDS011;23311;48.776;9.162;2023-05-14T06:58:40;8.60;;;7.57;;
291;SDS011;23311;48.776;9.162;2023-05-14T07:01:08;7.83;;;7.43;;
291;SDS011;23311;48.776;9.162;2023-05-14T07:03:36;8.70;;;8.20;;
291;SDS011;23311;48.776;9.162;2023-05-14T07:06:06;10.43;;;8.03;;
291;SDS011;23311;48.776;9.162;2023-05-14T07:08:34;9.17;;;8.67;;
291;SDS011;23311;48.776;9.162;2023-05-14T07:11:02;8.77;;;8.13;;
291;SDS011;23311;48.776;9.162;2023-05-14T07:13:30;9.43;;;8.03;;
291;SDS011;23311;48.776;9.162;2023-05-14T07:15:58;8.93;;;8.43;;
291;SDS011;23311;48.776;9.162;2023-05-14T07:18:26;9.10;;;7.87;;
291;SDS011;23311;48.776;9.162;2023-05-14T07:20:54;8.73;;;8.23;;
291;SDS011;23311;48.776;9.162;2023-05-14T07:23:24;7.77;;;7.40;;
291;SDS011;23311;48.776;9.162;2023-05-14T07:25:52;8.23;;;7.33;;
291;SDS011;23311;48.776;9.162;2023-05-14T07:28:20;11.00;;;9.70;;
291;SDS011;23311;48.776;9.162;2023-05-14T07:30:48;9.70;;;9.20;;
291;SDS011;23311;48.776;9.162;2023-05-14T07:33:16;8.73;;;8.20;;
291;SDS011;23311;48.776;9.162;2023-05-14T07:35:44;9.20;;;8.70;;
291;SDS011;23311;48.776;9.162;2023-05-14T07:38:12;8.30;;;7.90;;
291;SDS011;23311;48.776;9.162;2023-05-14T07:40:42;8.77;;;8.27;;
291;SDS011;23311;48.776;9.162;2023-05-14T07:43:10;7.80;;;6.93;;
291;SDS011;23311;48.776;9.162;2023-05-14T07:45:38;7.40;;;7.00;;
291;SDS011;23311;48.776;9.162;2023-05-14T07:48:06;8.37;;;7.93;;
291;SDS011;23311;48.776;9.162;2023-05-14T07:50:34;8.10;;;7.23;;
291;SDS011;23311;48.776;9.162;2023-05-14T07:53:02;8.60;;;8.10;;
291;SDS011;23311;48.776;9.162;2023-05-14T07:55:30;8.33;;;7.90;;
291;SDS011;23311;48.776;9.162;2023-05-14T07:58:00;7.30;;;6.90;;
291;SDS011;23311;48.776;9.162;2023-05-14T08:00:28;7.80;;;7.30;;
291;SDS011;23311;48.776;9.162;2023-05-14T08:02:56;8.20;;;7.80;;
291;SDS011;23311;48.776;9.162;2023-05-14T08:05:24;7.77;;;7.37;;
291;SDS011;23311;48.776;9.162;2023-05-14T08:07:52;7.57;;;7.20;;
291;SDS011;23311;48.776;9.162;2023-05-14T08:10:21;7.13;;;6.30;;
291;SDS011;23311;48.776;9.162;2023-05-14T08:12:49;7.30;;;6.90;;
291;SDS011;23311;48.776;9.162;2023-05-14T08:15:19;7.27;;;6.87;;
291;SDS011;23311;48.776;9.162;2023-05-14T08:17:47;7.23;;;6.83;;
291;SDS011;23311;48.776;9.162;2023-05-14T08:20:15;7.20;;;6.80;;
291;SDS011;23311;48.776;9.162;2023-05-14T08:22:44;7.33;;;6.97;;
291;SDS011;23311;48.776;9.162;2023-05-14T08:25:12;7.63;;;7.23;;
291;SDS011;23311;48.776;9.162;2023-05-14T08:27:40;7.40;;;7.00;;
291;SDS011;23311;48.776;9.162;2023-05-14T08:30:08;8.30;;;7.00;;
291;SDS011;23311;48.776;9.162;2023-05-14T08:32:38;8.37;;;7.93;;
291;SDS011;23311;48.776;9.162;2023-05-14T08:35:06;7.20;;;6.80;;
291;SDS011;23311;48.776;9.162;2023-05-14T08:37:35;7.40;;;7.00;;
291;SDS011;23311;48.776;9.162;2023-05-14T08:40:03;7.53;;;7.13;;
291;SDS011;23311;48.776;9.162;2023-05-14T08:42:33;8.80;;;8.30;;
291;SDS011;23311;48.776;9.162;2023-05-14T08:45:02;8.00;;;7.60;;
291;SDS011;23311;48.776;9.162;2023-05-14T08:47:34;7.70;;;7.30;;
291;SDS011;23311;48.776;9.162;2023-05-14T08:50:05;9.30;;;8.27;;
291;SDS011;23311;48.776;9.162;2023-05-14T08:52:34;7.77;;;7.37;;
291;SDS011;23311;48.776;9.162;2023-05-14T08:55:02;8.83;;;7.77;;
291;SDS011;23311;48.776;9.162;2023-05-14T08:57:32;9.00;;;8.50;;
291;SDS011;23311;48.776;9.162;2023-05-14T09:00:01;11.50;;;8.63;;
291;SDS011;23311;48.776;9.162;2023-05-14T09:02:33;8.73;;;8.30;;
291;SDS011;23311;48.776;9.162;2023-05-14T09:05:04;8.20;;;7.40;;
291;SDS011;23311;48.776;9.162;2023-05-14T09:07:34;8.60;;;8.17;;
291;SDS011;23311;48.776;9.162;2023-05-14T09:10:03;8.73;;;8.23;;
291;SDS011;23311;48.776;9.162;2023-05-14T09:12:31;8.80;;;8.30;;
291;SDS011;23311;48.776;9.162;2023-05-14T09:14:59;9.40;;;8.90;;
291;SDS011;23311;48.776;9.162;2023-05-14T09:17:27;9.50;;;8.80;;
291;SDS011;23311;48.776;9.162;2023-05-14T09:19:55;8.30;;;7.90;;
291;SDS011;23311;48.776;9.162;2023-05-14T09:22:27;9.63;;;9.13;;
291;SDS011;23311;48.776;9.162;2023-05-14T09:25:01;8.70;;;8.10;;
291;SDS011;23311;48.776;9.162;2023-05-14T09:27:31;8.37;;;7.93;;
291;SDS011;23311;48.776;9.162;2023-05-14T09:30:08;9.43;;;8.93;;
291;SDS011;23311;48.776;9.162;2023-05-14T09:32:37;9.80;;;9.30;;
291;SDS011;23311;48.776;9.162;2023-05-14T09:35:10;9.40;;;8.90;;
291;SDS011;23311;48.776;9.162;2023-05-14T09:37:41;8.77;;;8.27;;
291;SDS011;23311;48.776;9.162;2023-05-14T09:40:10;8.67;;;8.17;;
291;SDS011;23311;48.776;9.162;2023-05-14T09:42:39;9.20;;;8.70;;
291;SDS011;23311;48.776;9.162;2023-05-14T09:45:07;8.83;;;8.10;;
291;SDS011;23311;48.776;9.162;2023-05-14T09:47:36;9.37;;;8.87;;
291;SDS011;23311;48.776;9.162;2023-05-14T09:50:06;7.60;;;7.20;;
291;SDS011;23311;48.776;9.162;2023-05-14T09:52:34;6.77;;;6.27;;
291;SDS011;23311;48.776;9.162;2023-05-14T09:55:05;6.80;;;6.30;;
291;SDS011;23311;48.776;9.162;2023-05-14T09:57:33;8.53;;;6.70;;
291;SDS011;23311;48.776;9.162;2023-05-14T10:00:02;7.97;;;7.57;;
291;SDS011;23311;48.776;9.162;2023-05-14T10:02:34;7.13;;;6.73;;
291;SDS011;23311;48.776;9.162;2023-05-14T10:05:04;7.97;;;7.43;;
291;SDS011;23311;48.776;9.162;2023-05-14T10:07:35;8.60;;;7.93;;
291;SDS011;23311;48.776;9.162;2023-05-14T10:10:09;9.10;;;8.60;;
291;SDS011;23311;48.776;9.162;2023-05-14T10:12:41;6.70;;;6.30;;
291;SDS011;23311;48.776;9.162;2023-05-14T10:15:15;8.00;;;7.60;;
291;SDS011;23311;48.776;9.162;2023-05-14T10:17:47;7.60;;;7.20;;
291;SDS011;23311;48.776;9.162;2023-05-14T10:20:17;7.67;;;7.27;;
291;SDS011;23311;48.776;9.162;2023-05-14T10:22:46;9.47;;;7.33;;
291;SDS011;23311;48.776;9.162;2023-05-14T10:25:15;8.57;;;7.80;;
291;SDS011;23311;48.776;9.162;2023-05-14T10:27:44;7.90;;;7.50;;
291;SDS011;23311;48.776;9.162;2023-05-14T10:30:12;7.73;;;7.33;;
291;SDS011;23311;48.776;9.162;2023-05-14T10:32:40;7.23;;;6.83;;
291;SDS011;23311;48.776;9.162;2023-05-14T10:35:16;8.10;;;7.60;;
291;SDS011;23311;48.776;9.162;2023-05-14T10:37:46;6.90;;;6.30;;
291;SDS011;23311;48.776;9.162;2023-05-14T10:40:18;8.27;;;7.87;;
291;SDS011;23311;48.776;9.162;2023-05-14T10:42:50;8.80;;;7.70;;
291;SDS011;23311;48.776;9.162;2023-05-14T10:45:19;7.90;;;7.50;;
291;SDS011;23311;48.776;9.162;2023-05-14T10:47:50;8.00;;;7.60;;
291;SDS011;23311;48.776;9.162;2023-05-14T10:50:18;8.30;;;7.87;;
291;SDS011;23311;48.776;9.162;2023-05-14T10:52:49;7.17;;;6.53;;
291;SDS011;23311;48.776;9.162;2023-05-14T10:55:19;7.47;;;7.07;;
291;SDS011;23311;48.776;9.162;2023-05-14T10:57:48;6.83;;;6.43;;
291;SDS011;23311;48.776;9.162;2023-05-14T11:00:16;6.70;;;6.30;;
291;SDS011;23311;48.776;9.162;2023-05-14T11:02:44;7.00;;;6.60;;
291;SDS011;23311;48.776;9.162;2023-05-14T11:05:13;6.90;;;6.43;;
291;SDS011;23311;48.776;9.162;2023-05-14T11:07:44;8.80;;;6.37;;
291;SDS011;23311;48.776;9.162;2023-05-14T11:10:14;6.60;;;6.20;;
291;SDS011;23311;48.776;9.162;2023-05-14T11:12:45;5.60;;;5.30;;
291;SDS011;23311;48.776;9.162;2023-05-14T11:15:14;6.37;;;6.00;;
291;SDS011;23311;48.776;9.162;2023-05-14T11:17:44;6.87;;;6.47;;
291;SDS011;23311;48.776;9.162;2023-05-14T11:20:13;9.17;;;6.87;;
291;SDS011;23311;48.776;9.162;2023-05-14T11:22:43;8.70;;;8.20;;
291;SDS011;23311;48.776;9.162;2023-05-14T11:25:12;8.90;;;8.20;;
291;SDS011;23311;48.776;9.162;2023-05-14T11:27:43;9.13;;;8.63;;
291;SDS011;23311;48.776;9.162;2023-05-14T11:30:14;6.30;;;6.00;;
291;SDS011;23311;48.776;9.162;2023-05-14T11:32:44;7.77;;;7.37;;
291;SDS011;23311;48.776;9.162;2023-05-14T11:35:13;7.10;;;6.70;;
291;SDS011;23311;48.776;9.162;2023-05-14T11:37:46;6.80;;;5.60;;
291;SDS011;23311;48.776;9.162;2023-05-14T11:40:16;6.00;;;5.70;;
291;SDS011;23311;48.776;9.162;2023-05-14T11:42:48;5.80;;;5.50;;
291;SDS011;23311;48.776;9.162;2023-05-14T11:45:23;5.90;;;5.60;;
291;SDS011;23311;48.776;9.162;2023-05-14T11:47:51;6.13;;;5.83;;
291;SDS011;23311;48.776;9.162;2023-05-14T11:50:20;5.93;;;5.63;;
291;SDS011;23311;48.776;9.162;2023-05-14T11:52:48;6.37;;;6.03;;
291;SDS011;23311;48.776;9.162;2023-05-14T11:55:16;5.90;;;5.60;;
291;SDS011;23311;48.776;9.162;2023-05-14T11:57:47;5.80;;;5.40;;
291;SDS011;23311;48.776;9.162;2023-05-14T12:00:15;5.57;;;5.27;;
291;SDS011;23311;48.776;9.162;2023-05-14T12:02:47;5.90;;;5.23;;
291;SDS011;23311;48.776;9.162;2023-05-14T12:05:16;6.00;;;5.70;;
291;SDS011;23311;48.776;9.162;2023-05-14T12:07:44;6.10;;;5.03;;
291;SDS011;23311;48.776;9.162;2023-05-14T12:10:13;5.47;;;5.17;;
291;SDS011;23311;48.776;9.162;2023-05-14T12:12:43;6.33;;;5.00;;
291;SDS011;23311;48.776;9.162;2023-05-14T12:15:14;5.53;;;5.20;;
291;SDS011;23311;48.776;9.162;2023-05-14T12:17:48;6.33;;;5.97;;
291;SDS011;23311;48.776;9.162;2023-05-14T12:20:17;6.17;;;5.87;;
291;SDS011;23311;48.776;9.162;2023-05-14T12:22:45;6.90;;;5.40;;
291;SDS011;23311;48.776;9.162;2023-05-14T12:25:13;5.80;;;5.37;;
291;SDS011;23311;48.776;9.162;2023-05-14T12:27:43;7.33;;;5.80;;
291;SDS011;23311;48.776;9.162;2023-05-14T12:30:11;7.03;;;6.63;;
291;SDS011;23311;48.776;9.162;2023-05-14T12:32:44;4.97;;;4.67;;
291;SDS011;23311;48.776;9.162;2023-05-14T12:35:14;5.47;;;5.20;;
291;SDS011;23311;48.776;9.162;2023-05-14T12:37:42;5.07;;;4.80;;
291;SDS011;23311;48.776;9.162;2023-05-14T12:40:10;5.03;;;4.73;;
291;SDS011;23311;48.776;9.162;2023-05-14T12:42:39;5.27;;;4.97;;
291;SDS011;23311;48.776;9.162;2023-05-14T12:45:07;5.33;;;5.03;;
291;SDS011;23311;48.776;9.162;2023-05-14T12:47:35;6.43;;;5.87;;
291;SDS011;23311;48.776;9.162;2023-05-14T12:50:06;5.97;;;5.10;;
291;SDS011;23311;48.776;9.162;2023-05-14T12:52:34;4.90;;;4.50;;
291;SDS011;23311;48.776;9.162;2023-05-14T12:55:05;5.40;;;5.10;;
291;SDS011;23311;48.776;9.162;2023-05-14T12:57:34;4.97;;;4.00;;
291;SDS011;23311;48.776;9.162;2023-05-14T13:00:05;4.10;;;3.90;;
291;SDS011;23311;48.776;9.162;2023-05-14T13:02:39;4.30;;;4.00;;
291;SDS011;23311;48.776;9.162;2023-05-14T13:05:10;4.53;;;4.23;;
291;SDS011;23311;48.776;9.162;2023-05-14T13:07:38;4.40;;;4.03;;
291;SDS011;23311;48.776;9.162;2023-05-14T13:10:07;5.80;;;5.50;;
291;SDS011;23311;48.776;9.162;2023-05-14T13:12:36;3.87;;;3.67;;
291;SDS011;23311;48.776;9.162;2023-05-14T13:15:07;3.90;;;3.70;;
291;SDS011;23311;48.776;9.162;2023-05-14T13:17:36;5.90;;;3.87;;
291;SDS011;23311;48.776;9.162;2023-05-14T13:20:07;4.70;;;4.30;;
291;SDS011;23311;48.776;9.162;2023-05-14T13:22:37;3.60;;;3.40;;
291;SDS011;23311;48.776;9.162;2023-05-14T13:25:05;3.97;;;3.70;;
291;SDS011;23311;48.776;9.162;2023-05-14T13:27:34;4.10;;;3.90;;
291;SDS011;23311;48.776;9.162;2023-05-14T13:30:07;5.83;;;4.17;;
291;SDS011;23311;48.776;9.162;2023-05-14T13:32:35;4.30;;;4.00;;
291;SDS011;23311;48.776;9.162;2023-05-14T13:35:09;4.80;;;4.43;;
291;SDS011;23311;48.776;9.162;2023-05-14T13:37:43;5.87;;;5.57;;
291;SDS011;23311;48.776;9.162;2023-05-14T13:40:11;8.20;;;7.00;;
291;SDS011;23311;48.776;9.162;2023-05-14T13:42:39;7.47;;;7.07;;
291;SDS011;23311;48.776;9.162;2023-05-14T13:45:08;5.23;;;4.93;;
291;SDS011;23311;48.776;9.162;2023-05-14T13:47:37;4.87;;;4.57;;
291;SDS011;23311;48.776;9.162;2023-05-14T13:50:06;5.57;;;5.27;;
291;SDS011;23311;48.776;9.162;2023-05-14T13:52:34;4.50;;;4.20;;
291;SDS011;23311;48.776;9.162;2023-05-14T13:55:08;5.13;;;4.83;;
291;SDS011;23311;48.776;9.162;2023-05-14T13:57:37;5.73;;;5.07;;
291;SDS011;23311;48.776;9.162;2023-05-14T14:00:07;5.10;;;4.80;;
291;SDS011;23311;48.776;9.162;2023-05-14T14:02:36;4.50;;;4.20;;
291;SDS011;23311;48.776;9.162;2023-05-14T14:05:08;5.00;;;4.73;;
291;SDS011;23311;48.776;9.162;2023-05-14T14:07:36;4.23;;;3.97;;
291;SDS011;23311;48.776;9.162;2023-05-14T14:10:08;4.10;;;3.80;;
291;SDS011;23311;48.776;9.162;2023-05-14T14:12:40;4.23;;;3.97;;
291;SDS011;23311;48.776;9.162;2023-05-14T14:15:12;4.27;;;4.00;;
291;SDS011;23311;48.776;9.162;2023-05-14T14:17:41;4.30;;;4.00;;
291;SDS011;23311;48.776;9.162;2023-05-14T14:20:12;4.23;;;3.63;;
291;SDS011;23311;48.776;9.162;2023-05-14T14:22:42;4.00;;;3.60;;
291;SDS011;23311;48.776;9.162;2023-05-14T14:25:12;4.03;;;3.80;;
291;SDS011;23311;48.776;9.162;2023-05-14T14:27:40;3.40;;;3.20;;
291;SDS011;23311;48.776;9.162;2023-05-14T14:30:09;3.43;;;3.27;;
291;SDS011;23311;48.776;9.162;2023-05-14T14:32:42;3.80;;;3.60;;
291;SDS011;23311;48.776;9.162;2023-05-14T14:35:14;3.90;;;3.70;;
291;SDS011;23311;48.776;9.162;2023-05-14T14:37:43;3.77;;;3.57;;
291;SDS011;23311;48.776;9.162;2023-05-14T14:40:20;3.67;;;3.50;;
291;SDS011;23311;48.776;9.162;2023-05-14T14:42:51;3.90;;;3.70;;
291;SDS011;23311;48.776;9.162;2023-05-14T14:45:21;3.80;;;3.60;;
291;SDS011;23311;48.776;9.162;2023-05-14T14:47:50;3.90;;;3.73;;
291;SDS011;23311;48.776;9.162;2023-05-14T14:50:18;4.63;;;4.10;;
291;SDS011;23311;48.776;9.162;2023-05-14T14:52:46;4.17;;;3.93;;
291;SDS011;23311;48.776;9.162;2023-05-14T14:55:16;4.10;;;3.87;;
291;SDS011;23311;48.776;9.162;2023-05-14T14:57:47;4.50;;;4.20;;
291;SDS011;23311;48.776;9.162;2023-05-14T15:00:15;4.73;;;4.43;;
291;SDS011;23311;48.776;9.162;2023-05-14T15:02:48;3.80;;;3.60;;
291;SDS011;23311;48.776;9.162;2023-05-14T15:05:18;3.77;;;3.17;;
291;SDS011;23311;48.776;9.162;2023-05-14T15:07:47;4.60;;;3.50;;
291;SDS011;23311;48.776;9.162;2023-05-14T15:10:15;3.13;;;2.93;;
291;SDS011;23311;48.776;9.162;2023-05-14T15:12:44;3.60;;;3.43;;
291;SDS011;23311;48.776;9.162;2023-05-14T15:15:16;3.40;;;3.20;;
291;SDS011;23311;48.776;9.162;2023-05-14T15:17:44;3.33;;;3.13;;